createdAt,value
2019-04-28T00:00:52.972Z,28.30
2019-04-28T00:03:25.238Z,29.15
2019-04-28T00:05:57.364Z,30.87
2019-04-28T00:08:29.502Z,29.95
2019-04-28T00:11:01.903Z,31.40
2019-04-28T00:13:34.142Z,32.30
2019-04-28T00:16:07.846Z,32.33
2019-04-28T00:18:41.546Z,33.48
2019-04-28T00:21:14.747Z,36.00
2019-04-28T00:23:48.002Z,40.83
2019-04-28T00:26:21.410Z,45.25
2019-04-28T00:28:53.683Z,38.55
2019-04-28T00:31:25.958Z,33.73
2019-04-28T00:33:58.333Z,32.15
2019-04-28T00:36:31.259Z,31.65
2019-04-28T00:39:03.473Z,31.57
2019-04-28T00:41:36.858Z,31.85
2019-04-28T00:44:09.023Z,31.93
2019-04-28T00:46:41.908Z,29.67
2019-04-28T00:49:13.988Z,37.47
2019-04-28T00:51:46.496Z,57.58
2019-04-28T00:54:21.723Z,35.92
2019-04-28T00:56:53.730Z,36.30
2019-04-28T00:59:25.761Z,29.77
2019-04-28T01:02:01.128Z,27.52
2019-04-28T01:04:33.604Z,27.32
2019-04-28T01:07:05.783Z,25.92
2019-04-28T01:09:37.914Z,25.23
2019-04-28T01:12:11.218Z,26.05
2019-04-28T01:14:43.529Z,23.57
2019-04-28T01:17:17.002Z,30.23
2019-04-28T01:19:51.424Z,26.53
2019-04-28T01:22:23.714Z,26.03
2019-04-28T01:24:55.707Z,21.87
2019-04-28T01:27:30.383Z,20.13
2019-04-28T01:30:10.090Z,19.20
2019-04-28T01:32:39.986Z,17.75
2019-04-28T01:35:12.255Z,15.98
2019-04-28T01:37:44.486Z,15.93
2019-04-28T01:40:16.720Z,16.07
2019-04-28T01:42:49.955Z,15.20
2019-04-28T01:45:22.207Z,15.30
2019-04-28T01:47:54.295Z,15.30
2019-04-28T01:50:26.561Z,16.93
2019-04-28T01:52:59.767Z,16.05
2019-04-28T01:55:31.852Z,17.32
2019-04-28T01:58:04.017Z,17.00
2019-04-28T02:00:36.115Z,19.25
2019-04-28T02:03:10.265Z,19.00
2019-04-28T02:05:42.328Z,18.90
2019-04-28T02:08:14.520Z,18.98
2019-04-28T02:10:46.795Z,16.97
2019-04-28T02:13:19.842Z,16.37
2019-04-28T02:15:52.193Z,14.78
2019-04-28T02:18:24.231Z,14.85
2019-04-28T02:20:59.568Z,14.20
2019-04-28T02:23:32.730Z,14.13
2019-04-28T02:26:04.931Z,13.60
2019-04-28T02:28:37.215Z,12.70
2019-04-28T02:31:11.498Z,16.40
2019-04-28T02:33:43.096Z,13.70
2019-04-28T02:36:16.504Z,13.53
2019-04-28T02:38:51.138Z,13.00
2019-04-28T02:41:22.989Z,12.82
2019-04-28T02:43:55.102Z,12.85
2019-04-28T02:46:27.335Z,12.25
2019-04-28T02:49:00.938Z,15.97
2019-04-28T02:51:34.308Z,12.37
2019-04-28T02:54:06.317Z,16.73
2019-04-28T02:56:40.920Z,15.35
2019-04-28T02:59:12.970Z,12.77
2019-04-28T03:01:45.060Z,12.60
2019-04-28T03:04:20.127Z,12.68
2019-04-28T03:06:51.885Z,13.45
2019-04-28T03:09:24.073Z,14.83
2019-04-28T03:11:56.362Z,11.85
2019-04-28T03:14:30.496Z,12.03
2019-04-28T03:17:01.943Z,12.15
2019-04-28T03:19:34.131Z,11.38
2019-04-28T03:22:06.403Z,11.83
2019-04-28T03:24:41.097Z,11.73
2019-04-28T03:27:13.412Z,11.90
2019-04-28T03:29:47.016Z,13.40
2019-04-28T03:32:36.867Z,17.20
2019-04-28T03:34:54.563Z,14.60
2019-04-28T03:37:26.889Z,16.23
2019-04-28T03:40:00.481Z,12.88
2019-04-28T03:42:32.351Z,13.10
2019-04-28T03:45:05.584Z,12.93
2019-04-28T03:47:40.481Z,13.88
2019-04-28T03:50:11.677Z,16.20
2019-04-28T03:52:43.831Z,22.37
2019-04-28T03:55:15.833Z,13.55
2019-04-28T03:57:50.896Z,13.40
2019-04-28T04:00:22.016Z,12.60
2019-04-28T04:02:54.562Z,13.75
2019-04-28T04:05:26.925Z,14.55
2019-04-28T04:08:00.831Z,14.00
2019-04-28T04:10:34.162Z,13.85
2019-04-28T04:13:07.672Z,13.97
2019-04-28T04:15:41.468Z,13.93
2019-04-28T04:18:14.816Z,13.80
2019-04-28T04:20:47.010Z,13.58
2019-04-28T04:23:22.869Z,13.20
2019-04-28T04:25:52.403Z,13.08
2019-04-28T04:28:24.481Z,12.78
2019-04-28T04:30:56.786Z,13.48
2019-04-28T04:33:30.989Z,13.68
2019-04-28T04:36:03.045Z,13.35
2019-04-28T04:38:35.344Z,12.58
2019-04-28T04:41:07.373Z,13.68
2019-04-28T04:43:41.579Z,12.98
2019-04-28T04:46:14.794Z,12.93
2019-04-28T04:48:47.196Z,13.55
2019-04-28T04:51:21.313Z,12.53
2019-04-28T04:53:52.800Z,13.10
2019-04-28T04:56:26.358Z,13.25
2019-04-28T04:59:02.202Z,12.70
2019-04-28T05:01:34.604Z,12.07
2019-04-28T05:04:09.515Z,12.87
2019-04-28T05:06:43.325Z,13.10
2019-04-28T05:09:16.233Z,13.03
2019-04-28T05:11:49.943Z,13.28
2019-04-28T05:14:22.331Z,13.28
2019-04-28T05:16:54.469Z,12.75
2019-04-28T05:19:26.718Z,13.30
2019-04-28T05:22:00.033Z,13.20
2019-04-28T05:24:33.669Z,12.43
2019-04-28T05:27:06.651Z,13.07
2019-04-28T05:29:39.752Z,12.45
2019-04-28T05:32:12.279Z,13.23
2019-04-28T05:34:46.745Z,12.78
2019-04-28T05:37:19.463Z,12.35
2019-04-28T05:39:52.628Z,13.45
2019-04-28T05:42:24.890Z,13.33
2019-04-28T05:44:57.142Z,12.45
2019-04-28T05:47:30.542Z,12.80
2019-04-28T05:50:04.235Z,13.00
2019-04-28T05:52:37.827Z,12.03
2019-04-28T05:55:11.519Z,12.90
2019-04-28T05:57:46.005Z,12.73
2019-04-28T06:00:19.748Z,12.40
2019-04-28T06:02:56.508Z,12.45
2019-04-28T06:05:26.689Z,12.82
2019-04-28T06:08:00.357Z,12.33
2019-04-28T06:10:33.106Z,12.10
2019-04-28T06:13:05.444Z,13.28
2019-04-28T06:15:39.553Z,12.25
2019-04-28T06:18:11.084Z,12.75
2019-04-28T06:20:43.284Z,12.40
2019-04-28T06:23:15.567Z,12.00
2019-04-28T06:25:47.628Z,12.18
2019-04-28T06:28:20.028Z,12.28
2019-04-28T06:30:52.241Z,12.53
2019-04-28T06:33:24.366Z,12.40
2019-04-28T06:35:56.649Z,11.95
2019-04-28T06:38:28.882Z,12.70
2019-04-28T06:41:01.072Z,11.23
2019-04-28T06:43:33.295Z,11.60
2019-04-28T06:46:05.516Z,11.77
2019-04-28T06:48:37.890Z,10.60
2019-04-28T06:51:10.260Z,10.88
2019-04-28T06:53:42.586Z,11.03
2019-04-28T06:56:14.858Z,10.43
2019-04-28T06:58:58.356Z,10.75
2019-04-28T07:01:20.379Z,10.98
2019-04-28T07:03:52.528Z,11.50
2019-04-28T07:06:24.645Z,11.08
2019-04-28T07:08:57.007Z,10.70
2019-04-28T07:11:29.368Z,11.95
2019-04-28T07:14:01.485Z,11.50
2019-04-28T07:16:33.692Z,10.87
2019-04-28T07:19:05.892Z,11.05
2019-04-28T07:21:39.629Z,11.20
2019-04-28T07:24:12.009Z,11.08
2019-04-28T07:26:44.143Z,11.28
2019-04-28T07:29:16.153Z,11.08
2019-04-28T07:31:48.312Z,10.82
2019-04-28T07:34:20.628Z,10.85
2019-04-28T07:36:52.951Z,10.80
2019-04-28T07:39:25.329Z,10.28
2019-04-28T07:41:57.550Z,10.72
2019-04-28T07:44:29.618Z,10.95
2019-04-28T07:47:01.692Z,11.10
2019-04-28T07:49:33.854Z,10.63
2019-04-28T07:52:07.121Z,10.98
2019-04-28T07:54:40.178Z,11.30
2019-04-28T07:57:12.407Z,11.88
2019-04-28T07:59:44.579Z,11.17
2019-04-28T08:02:16.852Z,11.30
2019-04-28T08:04:48.984Z,10.97
2019-04-28T08:07:21.234Z,11.18
2019-04-28T08:09:53.497Z,11.20
2019-04-28T08:12:25.586Z,11.00
2019-04-28T08:14:57.663Z,11.10
2019-04-28T08:17:29.711Z,10.58
2019-04-28T08:20:01.877Z,10.50
2019-04-28T08:22:35.515Z,10.95
2019-04-28T08:25:08.237Z,10.72
2019-04-28T08:27:40.294Z,10.53
2019-04-28T08:30:12.450Z,10.93
2019-04-28T08:32:45.885Z,11.45
2019-04-28T08:35:21.398Z,11.22
2019-04-28T08:37:54.059Z,11.20
2019-04-28T08:40:26.347Z,11.30
2019-04-28T08:42:58.518Z,10.98
2019-04-28T08:45:30.664Z,11.40
2019-04-28T08:48:02.848Z,11.38
2019-04-28T08:50:35.869Z,11.18
2019-04-28T08:53:07.884Z,10.63
2019-04-28T08:55:40.086Z,10.38
2019-04-28T08:58:12.452Z,10.90
2019-04-28T09:00:45.534Z,10.85
2019-04-28T09:03:17.687Z,10.77
2019-04-28T09:05:49.778Z,27.60
2019-04-28T09:08:22.226Z,24.52
2019-04-28T09:10:54.754Z,12.82
2019-04-28T09:13:27.049Z,12.40
2019-04-28T09:15:59.381Z,10.80
2019-04-28T09:18:32.485Z,10.88
2019-04-28T09:21:04.492Z,13.60
2019-04-28T09:23:36.686Z,13.28
2019-04-28T09:26:08.864Z,11.05
2019-04-28T09:28:41.055Z,11.78
2019-04-28T09:31:13.092Z,25.00
2019-04-28T09:33:45.360Z,11.33
2019-04-28T09:36:17.502Z,11.80
2019-04-28T09:38:49.638Z,19.10
2019-04-28T09:41:21.946Z,10.95
2019-04-28T09:43:55.224Z,10.48
2019-04-28T09:46:28.832Z,10.98
2019-04-28T09:49:01.304Z,10.85
2019-04-28T09:51:33.445Z,24.63
2019-04-28T09:54:05.570Z,20.85
2019-04-28T09:56:37.726Z,12.28
2019-04-28T09:59:09.775Z,15.48
2019-04-28T10:01:41.889Z,10.20
2019-04-28T10:04:13.973Z,10.13
2019-04-28T10:06:47.048Z,9.80
2019-04-28T10:09:19.060Z,16.10
2019-04-28T10:11:51.371Z,24.12
2019-04-28T10:14:23.418Z,24.67
2019-04-28T10:16:55.669Z,27.10
2019-04-28T10:19:27.731Z,26.10
2019-04-28T10:21:59.806Z,23.75
2019-04-28T10:24:31.901Z,23.45
2019-04-28T10:27:06.227Z,28.15
2019-04-28T10:29:38.400Z,27.90
2019-04-28T10:32:11.453Z,34.63
2019-04-28T10:34:54.362Z,23.60
2019-04-28T10:37:17.112Z,25.77
2019-04-28T10:39:50.580Z,27.20
2019-04-28T10:42:23.200Z,26.40
2019-04-28T10:44:55.549Z,26.30
2019-04-28T10:47:29.035Z,26.45
2019-04-28T10:50:01.278Z,26.68
2019-04-28T10:52:33.523Z,26.23
2019-04-28T10:55:07.454Z,28.02
2019-04-28T10:57:39.490Z,31.17
2019-04-28T11:00:12.723Z,28.55
2019-04-28T11:02:45.098Z,24.35
2019-04-28T11:05:18.803Z,25.25
2019-04-28T11:07:51.279Z,24.52
2019-04-28T11:10:23.611Z,24.27
2019-04-28T11:12:56.091Z,27.07
2019-04-28T11:15:29.826Z,26.35
2019-04-28T11:18:02.233Z,27.07
2019-04-28T11:20:34.816Z,26.68
2019-04-28T11:23:06.906Z,27.50
2019-04-28T11:25:38.884Z,27.33
2019-04-28T11:28:11.173Z,30.45
2019-04-28T11:30:43.730Z,37.98
2019-04-28T11:33:17.231Z,44.53
2019-04-28T11:35:49.805Z,33.10
2019-04-28T11:38:22.061Z,30.52
2019-04-28T11:40:54.199Z,31.07
2019-04-28T11:43:26.679Z,32.10
2019-04-28T11:45:58.720Z,31.68
2019-04-28T11:48:30.869Z,63.60
2019-04-28T11:51:03.033Z,36.68
2019-04-28T11:53:35.212Z,34.38
2019-04-28T11:56:07.382Z,32.05
2019-04-28T11:58:39.513Z,30.70
2019-04-28T12:01:12.716Z,29.55
2019-04-28T12:03:44.994Z,30.17
2019-04-28T12:06:17.484Z,30.57
2019-04-28T12:08:50.962Z,30.45
2019-04-28T12:11:24.255Z,32.28
2019-04-28T12:13:57.858Z,32.03
2019-04-28T12:16:41.551Z,31.77
2019-04-28T12:19:15.047Z,34.63
2019-04-28T12:21:47.027Z,36.38
2019-04-28T12:24:19.191Z,43.30
2019-04-28T12:26:51.190Z,43.70
2019-04-28T12:29:23.415Z,34.60
2019-04-28T12:31:55.519Z,37.17
2019-04-28T12:34:27.992Z,41.80
2019-04-28T12:37:00.336Z,39.90
2019-04-28T12:39:32.520Z,35.45
2019-04-28T12:42:04.773Z,32.33
2019-04-28T12:44:37.124Z,57.98
2019-04-28T12:47:09.161Z,31.35
2019-04-28T12:49:42.612Z,32.80
2019-04-28T12:52:16.072Z,52.60
2019-04-28T12:54:49.317Z,28.50
2019-04-28T12:57:21.531Z,29.43
2019-04-28T12:59:55.099Z,30.25
2019-04-28T13:02:29.344Z,31.55
2019-04-28T13:05:02.708Z,36.48
2019-04-28T13:07:35.032Z,42.73
2019-04-28T13:10:08.045Z,32.42
2019-04-28T13:12:40.221Z,40.80
2019-04-28T13:15:12.720Z,36.73
2019-04-28T13:17:45.175Z,26.10
2019-04-28T13:20:17.578Z,20.72
2019-04-28T13:22:50.009Z,18.70
2019-04-28T13:25:22.358Z,17.35
2019-04-28T13:27:54.444Z,15.20
2019-04-28T13:30:26.914Z,14.80
2019-04-28T13:33:00.404Z,12.30
2019-04-28T13:35:32.780Z,19.10
2019-04-28T13:38:05.052Z,12.58
2019-04-28T13:40:38.853Z,10.70
2019-04-28T13:43:10.998Z,9.23
2019-04-28T13:45:43.450Z,9.05
2019-04-28T13:48:15.752Z,8.70
2019-04-28T13:50:49.072Z,8.48
2019-04-28T13:53:21.502Z,8.48
2019-04-28T13:55:54.832Z,8.10
2019-04-28T13:58:29.112Z,7.75
2019-04-28T14:01:02.639Z,8.03
2019-04-28T14:03:36.052Z,7.83
2019-04-28T14:06:09.513Z,10.55
2019-04-28T14:08:41.746Z,9.43
2019-04-28T14:11:14.149Z,9.88
2019-04-28T14:13:46.393Z,9.95
2019-04-28T14:16:18.743Z,9.15
2019-04-28T14:18:51.624Z,8.43
2019-04-28T14:21:24.064Z,8.35
2019-04-28T14:23:56.391Z,9.50
2019-04-28T14:26:28.556Z,9.53
2019-04-28T14:29:00.590Z,9.37
2019-04-28T14:31:32.968Z,8.53
2019-04-28T14:34:05.047Z,8.38
2019-04-28T14:36:42.300Z,8.35
2019-04-28T14:39:11.894Z,9.30
2019-04-28T14:41:44.838Z,8.90
2019-04-28T14:44:17.770Z,9.38
2019-04-28T14:46:50.138Z,9.40
2019-04-28T14:49:22.178Z,9.80
2019-04-28T14:51:54.227Z,9.38
2019-04-28T14:54:26.386Z,9.57
2019-04-28T14:56:58.816Z,65.55
2019-04-28T14:59:30.989Z,12.58
2019-04-28T15:02:04.519Z,11.38
2019-04-28T15:04:38.089Z,10.28
2019-04-28T15:07:11.558Z,9.87
2019-04-28T15:09:45.103Z,10.03
2019-04-28T15:12:17.443Z,9.80
2019-04-28T15:14:49.535Z,10.05
2019-04-28T15:17:21.909Z,9.80
2019-04-28T15:19:54.273Z,9.87
2019-04-28T15:22:27.337Z,9.80
2019-04-28T15:25:00.238Z,9.73
2019-04-28T15:27:32.464Z,10.13
2019-04-28T15:30:04.696Z,10.10
2019-04-28T15:32:36.976Z,10.63
2019-04-28T15:35:09.296Z,10.10
2019-04-28T15:37:41.423Z,9.98
2019-04-28T15:40:13.533Z,10.30
2019-04-28T15:42:45.564Z,10.08
2019-04-28T15:45:17.562Z,10.30
2019-04-28T15:47:49.880Z,10.50
2019-04-28T15:50:25.018Z,10.90
2019-04-28T15:52:55.615Z,10.72
2019-04-28T15:55:29.122Z,11.23
2019-04-28T15:58:02.621Z,11.75
2019-04-28T16:00:34.855Z,11.67
2019-04-28T16:03:07.041Z,13.32
2019-04-28T16:05:39.309Z,12.33
2019-04-28T16:08:11.500Z,11.90
2019-04-28T16:10:44.064Z,11.67
2019-04-28T16:13:16.308Z,12.15
2019-04-28T16:15:48.550Z,11.12
2019-04-28T16:18:20.899Z,11.30
2019-04-28T16:20:53.231Z,11.23
2019-04-28T16:23:25.512Z,11.90
2019-04-28T16:25:57.794Z,11.57
2019-04-28T16:28:30.076Z,11.90
2019-04-28T16:31:02.238Z,11.53
2019-04-28T16:33:34.573Z,12.45
2019-04-28T16:36:06.823Z,13.55
2019-04-28T16:38:38.815Z,13.78
2019-04-28T16:41:13.641Z,12.47
2019-04-28T16:43:47.966Z,11.70
2019-04-28T16:46:21.526Z,12.40
2019-04-28T16:48:53.782Z,12.35
2019-04-28T16:51:26.001Z,10.93
2019-04-28T16:53:58.313Z,11.63
2019-04-28T16:56:31.753Z,11.50
2019-04-28T16:59:05.006Z,11.85
2019-04-28T17:01:38.338Z,13.45
2019-04-28T17:04:10.386Z,12.25
2019-04-28T17:06:42.568Z,22.15
2019-04-28T17:09:15.546Z,20.67
2019-04-28T17:11:47.596Z,40.35
2019-04-28T17:14:19.736Z,17.52
2019-04-28T17:16:51.949Z,13.50
2019-04-28T17:19:24.230Z,16.57
2019-04-28T17:21:56.306Z,15.68
2019-04-28T17:24:28.542Z,14.93
2019-04-28T17:27:01.679Z,22.53
2019-04-28T17:29:34.049Z,33.15
2019-04-28T17:32:06.390Z,24.72
2019-04-28T17:34:38.491Z,14.55
2019-04-28T17:37:10.762Z,14.28
2019-04-28T17:39:43.042Z,13.32
2019-04-28T17:42:15.397Z,16.48
2019-04-28T17:44:47.782Z,19.30
2019-04-28T17:47:20.811Z,17.77
2019-04-28T17:49:53.187Z,15.88
2019-04-28T17:52:26.279Z,15.03
2019-04-28T17:54:58.605Z,15.38
2019-04-28T17:57:30.908Z,17.92
2019-04-28T18:00:04.355Z,26.60
2019-04-28T18:02:39.034Z,19.42
2019-04-28T18:05:12.478Z,19.50
2019-04-28T18:07:45.626Z,19.33
2019-04-28T18:10:18.243Z,18.48
2019-04-28T18:13:00.285Z,19.52
2019-04-28T18:15:25.131Z,19.57
2019-04-28T18:17:58.431Z,23.77
2019-04-28T18:20:30.996Z,22.60
2019-04-28T18:23:03.300Z,21.77
2019-04-28T18:25:35.437Z,22.00
2019-04-28T18:28:07.744Z,22.87
2019-04-28T18:30:41.216Z,27.87
2019-04-28T18:33:15.021Z,24.60
2019-04-28T18:35:48.411Z,25.02
2019-04-28T18:38:34.275Z,31.30
2019-04-28T18:40:56.536Z,24.50
2019-04-28T18:43:30.013Z,24.15
2019-04-28T18:46:02.190Z,30.40
2019-04-28T18:48:36.177Z,29.80
2019-04-28T18:51:07.996Z,34.40
2019-04-28T18:53:40.137Z,30.30
2019-04-28T18:56:12.371Z,24.10
2019-04-28T18:58:44.532Z,23.00
2019-04-28T19:01:17.959Z,39.77
2019-04-28T19:03:50.402Z,23.87
2019-04-28T19:06:22.579Z,23.02
2019-04-28T19:08:56.010Z,30.57
2019-04-28T19:11:29.432Z,22.30
2019-04-28T19:14:02.857Z,22.70
2019-04-28T19:16:36.192Z,22.35
2019-04-28T19:19:09.614Z,21.65
2019-04-28T19:21:43.037Z,21.50
2019-04-28T19:24:15.194Z,21.48
2019-04-28T19:26:47.375Z,22.02
2019-04-28T19:29:19.419Z,27.85
2019-04-28T19:31:51.595Z,35.58
2019-04-28T19:34:23.573Z,25.62
2019-04-28T19:36:55.645Z,21.80
2019-04-28T19:39:27.634Z,21.93
2019-04-28T19:41:59.902Z,22.15
2019-04-28T19:44:32.186Z,20.88
2019-04-28T19:47:04.489Z,20.80
2019-04-28T19:49:36.584Z,21.40
2019-04-28T19:52:08.953Z,19.85
2019-04-28T19:54:42.196Z,19.40
2019-04-28T19:57:15.988Z,19.17
2019-04-28T19:59:49.509Z,18.32
2019-04-28T20:02:21.683Z,19.00
2019-04-28T20:04:53.781Z,18.40
2019-04-28T20:07:25.921Z,18.82
2019-04-28T20:09:59.078Z,18.80
2019-04-28T20:12:31.284Z,18.80
2019-04-28T20:15:03.368Z,19.20
2019-04-28T20:17:36.512Z,18.87
2019-04-28T20:20:08.785Z,18.65
2019-04-28T20:22:41.469Z,18.62
2019-04-28T20:25:13.751Z,19.42
2019-04-28T20:27:46.003Z,18.50
2019-04-28T20:30:17.986Z,18.80
2019-04-28T20:32:50.258Z,18.15
2019-04-28T20:35:23.511Z,17.20
2019-04-28T20:37:56.939Z,17.40
2019-04-28T20:40:30.300Z,16.93
2019-04-28T20:43:03.991Z,16.50
2019-04-28T20:45:36.189Z,16.70
2019-04-28T20:48:08.482Z,16.45
2019-04-28T20:50:40.682Z,16.45
2019-04-28T20:53:13.184Z,17.00
2019-04-28T20:55:45.791Z,16.07
2019-04-28T20:58:17.910Z,16.25
2019-04-28T21:00:50.153Z,17.07
2019-04-28T21:03:22.511Z,17.37
2019-04-28T21:05:54.671Z,17.50
2019-04-28T21:08:26.752Z,17.10
2019-04-28T21:10:58.956Z,18.00
2019-04-28T21:13:31.192Z,18.80
2019-04-28T21:16:03.377Z,18.70
2019-04-28T21:18:35.616Z,18.60
2019-04-28T21:21:07.759Z,17.75
2019-04-28T21:23:40.261Z,18.05
2019-04-28T21:26:12.333Z,16.97
2019-04-28T21:28:44.346Z,16.67
2019-04-28T21:31:16.430Z,17.48
2019-04-28T21:33:48.580Z,17.65
2019-04-28T21:36:20.854Z,16.70
2019-04-28T21:38:52.876Z,16.67
2019-04-28T21:41:24.968Z,17.00
2019-04-28T21:43:59.585Z,16.50
2019-04-28T21:46:33.190Z,16.30
2019-04-28T21:49:06.634Z,15.75
2019-04-28T21:51:38.773Z,16.45
2019-04-28T21:54:11.052Z,15.10
2019-04-28T21:56:43.198Z,15.95
2019-04-28T21:59:15.466Z,16.17
2019-04-28T22:01:47.673Z,16.55
2019-04-28T22:04:20.102Z,15.78
2019-04-28T22:06:52.432Z,15.80
2019-04-28T22:09:24.719Z,15.95
2019-04-28T22:11:56.989Z,15.80
2019-04-28T22:14:28.987Z,16.37
2019-04-28T22:17:01.501Z,16.00
2019-04-28T22:19:33.569Z,15.73
2019-04-28T22:22:05.603Z,15.43
2019-04-28T22:24:40.065Z,14.87
2019-04-28T22:27:13.526Z,14.50
2019-04-28T22:29:45.996Z,14.13
2019-04-28T22:32:18.257Z,14.73
2019-04-28T22:34:50.392Z,15.18
2019-04-28T22:37:23.510Z,14.58
2019-04-28T22:39:55.662Z,14.38
2019-04-28T22:42:27.910Z,14.90
2019-04-28T22:45:00.111Z,15.00
2019-04-28T22:47:35.298Z,14.87
2019-04-28T22:50:10.482Z,14.75
2019-04-28T22:52:42.731Z,15.25
2019-04-28T22:55:16.140Z,14.03
2019-04-28T22:57:50.517Z,15.25
2019-04-28T23:00:24.424Z,14.73
2019-04-28T23:02:57.810Z,15.55
2019-04-28T23:05:29.936Z,15.50
2019-04-28T23:08:03.527Z,16.48
2019-04-28T23:10:35.835Z,19.75
2019-04-28T23:13:07.996Z,17.40
2019-04-28T23:15:41.083Z,16.37
2019-04-28T23:18:13.431Z,20.20
2019-04-28T23:20:46.865Z,18.60
2019-04-28T23:23:18.937Z,18.80
2019-04-28T23:25:51.397Z,22.40
2019-04-28T23:28:23.575Z,25.30
2019-04-28T23:30:56.948Z,26.60
2019-04-28T23:33:29.076Z,23.75
2019-04-28T23:36:01.262Z,29.40
2019-04-28T23:38:33.438Z,24.30
2019-04-28T23:41:06.726Z,27.00
2019-04-28T23:43:39.086Z,26.35
2019-04-28T23:46:11.357Z,26.23
2019-04-28T23:48:43.635Z,27.90
2019-04-28T23:51:17.063Z,27.48
2019-04-28T23:53:50.445Z,25.02
2019-04-28T23:56:22.612Z,24.25
2019-04-28T23:58:54.786Z,22.60
